Time;durP1;ratioP1;P1;durP2;ratioP2;P2;SDS_P1;SDS_P2;PMS_P1;PMS_P2;Temp;Humidity;BMP_temperature;BMP_pressure;BME280_temperature;BME280_humidity;BME280_pressure;Samples;Min_cycle;Max_cycle;Signal;HPM_P1;HPM_P2
2021/05/16 00:01:43;;;;;;;19.93;18.07;;;;;;;11.55;83.76;97930.30;125241;1096;64291;-91
2021/05/16 00:04:10;;;;;;;22.00;19.90;;;;;;;11.57;83.92;97923.00;125096;1097;64329;-91
2021/05/16 00:06:38;;;;;;;28.07;25.47;;;;;;;11.56;83.71;97927.50;125281;1096;64336;-91
2021/05/16 00:09:05;;;;;;;21.33;19.17;;;;;;;11.53;83.73;97929.58;125267;1097;64333;-91
2021/05/16 00:11:33;;;;;;;19.50;17.00;;;;;;;11.53;84.09;97925.11;125298;1102;64482;-91
2021/05/16 00:14:00;;;;;;;19.60;17.10;;;;;;;11.52;84.10;97933.23;125033;1096;64644;-91
2021/05/16 00:16:28;;;;;;;20.47;16.53;;;;;;;11.48;84.11;97923.80;125124;1097;64326;-91
2021/05/16 00:18:55;;;;;;;16.77;15.07;;;;;;;11.46;83.96;97931.12;125343;1101;64236;-90
2021/05/16 00:21:22;;;;;;;18.00;15.75;;;;;;;11.45;84.33;97924.07;125306;1101;64451;-91
2021/05/16 00:23:49;;;;;;;18.97;17.00;;;;;;;11.41;83.99;97923.51;125025;1103;64418;-92
2021/05/16 00:26:17;;;;;;;20.67;18.47;;;;;;;11.39;84.40;97923.63;125088;1097;64397;-92
2021/05/16 00:28:44;;;;;;;18.33;16.63;;;;;;;11.36;83.98;97910.56;124985;1101;64424;-92
2021/05/16 00:31:11;;;;;;;17.67;16.10;;;;;;;11.35;83.97;97914.22;125315;1101;64316;-92
2021/05/16 00:33:39;;;;;;;18.17;16.37;;;;;;;11.36;84.08;97912.39;125345;1101;64399;-92
2021/05/16 00:36:06;;;;;;;18.90;16.90;;;;;;;11.37;84.08;97914.94;125324;1101;64306;-91
2021/05/16 00:38:33;;;;;;;19.55;17.45;;;;;;;11.36;84.20;97913.23;125102;1101;64464;-92
2021/05/16 00:41:01;;;;;;;18.57;16.47;;;;;;;11.33;84.02;97913.50;125305;1096;64312;-91
2021/05/16 00:43:28;;;;;;;26.70;21.33;;;;;;;11.34;84.11;97917.02;125297;1101;64386;-92
2021/05/16 00:45:56;;;;;;;23.07;20.57;;;;;;;11.38;84.13;97918.45;125056;1096;64329;-91
2021/05/16 00:48:23;;;;;;;22.63;19.07;;;;;;;11.39;84.15;97906.78;125307;1101;64332;-92
2021/05/16 00:50:51;;;;;;;21.53;17.97;;;;;;;11.39;84.33;97912.95;125243;1101;64294;-90
2021/05/16 00:53:23;;;;;;;23.93;18.60;;;;;;;11.41;84.25;97911.01;125103;1097;64310;-90
2021/05/16 00:55:51;;;;;;;17.40;15.57;;;;;;;11.47;84.20;97900.78;125153;1102;64275;-90
2021/05/16 00:58:18;;;;;;;17.00;15.25;;;;;;;11.51;84.32;97905.72;125302;1101;64416;-90
2021/05/16 01:00:46;;;;;;;17.67;14.70;;;;;;;11.53;84.23;97909.10;125319;1096;64329;-90
2021/05/16 01:03:14;;;;;;;18.70;16.63;;;;;;;11.55;84.14;97904.45;125035;1102;64333;-91
2021/05/16 01:05:42;;;;;;;17.30;15.60;;;;;;;11.56;84.11;97906.16;125418;1097;64333;-90
2021/05/16 01:08:11;;;;;;;16.67;14.93;;;;;;;11.58;83.89;97906.00;125145;1096;64365;-90
2021/05/16 01:10:39;;;;;;;18.63;16.67;;;;;;;11.56;84.01;97902.66;125027;1102;64307;-90
2021/05/16 01:13:09;;;;;;;22.30;18.40;;;;;;;11.55;84.14;97903.61;125057;1101;64422;-90
2021/05/16 01:15:39;;;;;;;17.65;15.45;;;;;;;11.62;84.19;97912.77;125290;1101;64446;-91
2021/05/16 01:18:06;;;;;;;15.95;14.28;;;;;;;11.68;84.24;97911.38;125161;1096;64361;-91
2021/05/16 01:20:38;;;;;;;17.63;15.37;;;;;;;11.68;84.06;97914.05;125211;1096;64371;-90
2021/05/16 01:23:14;;;;;;;19.57;16.80;;;;;;;11.70;84.05;97904.92;125044;1097;64339;-91
2021/05/16 01:25:44;;;;;;;17.05;15.35;;;;;;;11.72;83.98;97900.30;125023;1102;64327;-91
2021/05/16 01:28:13;;;;;;;16.93;15.27;;;;;;;11.72;84.13;97897.63;124930;1097;64338;-92
2021/05/16 01:30:42;;;;;;;17.50;15.80;;;;;;;11.73;84.03;97903.81;125079;1096;64351;-90
2021/05/16 01:33:11;;;;;;;18.00;16.17;;;;;;;11.71;83.94;97905.77;125248;1101;64425;-91
2021/05/16 01:35:39;;;;;;;18.57;16.57;;;;;;;11.70;84.00;97904.09;124967;1096;64402;-92
2021/05/16 01:38:08;;;;;;;19.57;15.80;;;;;;;11.73;83.96;97899.31;125348;1096;64246;-92
2021/05/16 01:40:38;;;;;;;20.70;15.43;;;;;;;11.73;83.98;97895.80;125118;1101;64332;-92
2021/05/16 01:43:13;;;;;;;21.07;16.13;;;;;;;11.74;83.95;97898.34;125292;1096;64326;-91
2021/05/16 01:45:43;;;;;;;19.30;17.30;;;;;;;11.71;83.93;97895.92;125130;1102;64336;-92
2021/05/16 01:48:10;;;;;;;15.90;14.40;;;;;;;11.71;83.87;97893.25;125220;1102;64315;-92
2021/05/16 01:50:39;;;;;;;12.60;10.80;;;;;;;11.71;83.48;97895.09;125138;1101;64463;-92
2021/05/16 01:53:09;;;;;;;19.47;16.43;;;;;;;11.73;83.94;97888.63;126083;1101;64204;-91
2021/05/16 01:55:59;;;;;;;14.10;12.70;;;;;;;11.74;83.65;97897.47;127157;1101;62810;-92
2021/05/16 01:58:27;;;;;;;25.25;22.63;;;;;;;11.75;83.74;97891.17;126399;1101;64389;-92
2021/05/16 02:00:56;;;;;;;35.50;32.30;;;;;;;11.84;83.93;97893.84;125094;1103;64282;-91
2021/05/16 02:03:23;;;;;;;28.10;25.60;;;;;;;11.93;83.73;97899.36;125352;1097;64457;-91
2021/05/16 02:05:51;;;;;;;42.57;38.57;;;;;;;12.01;83.70;97896.88;125283;1101;64364;-92
2021/05/16 02:08:19;;;;;;;33.37;30.17;;;;;;;12.02;83.41;97903.89;125167;1101;64360;-92
2021/05/16 02:10:47;;;;;;;30.30;27.33;;;;;;;12.02;83.45;97901.22;125184;1101;64307;-93
2021/05/16 02:13:14;;;;;;;20.37;18.40;;;;;;;12.04;83.18;97904.61;125276;1096;64327;-92
2021/05/16 02:15:42;;;;;;;14.17;12.73;;;;;;;12.01;83.17;97895.05;125353;1097;64385;-92
2021/05/16 02:18:15;;;;;;;12.33;11.03;;;;;;;12.03;83.21;97901.09;125365;1096;64272;-91
2021/05/16 02:20:43;;;;;;;11.80;10.23;;;;;;;12.02;83.22;97902.06;125106;1101;64257;-91
2021/05/16 02:23:10;;;;;;;19.23;17.43;;;;;;;12.01;83.45;97902.22;125308;1101;64358;-91
2021/05/16 02:25:37;;;;;;;22.77;20.57;;;;;;;12.03;83.54;97909.11;125170;1101;64300;-91
2021/05/16 02:28:06;;;;;;;16.53;15.03;;;;;;;12.05;83.59;97906.28;125302;1101;64383;-91
2021/05/16 02:30:34;;;;;;;13.73;12.40;;;;;;;12.07;83.35;97901.66;125371;1101;64419;-91
2021/05/16 02:33:02;;;;;;;14.23;12.83;;;;;;;12.04;83.47;97908.11;125379;1101;64339;-91
2021/05/16 02:35:29;;;;;;;11.23;10.20;;;;;;;12.03;83.44;97898.42;125429;1101;64403;-91
2021/05/16 02:37:56;;;;;;;11.13;10.13;;;;;;;12.02;83.44;97895.88;125543;1101;64337;-92
2021/05/16 02:40:24;;;;;;;10.73;9.63;;;;;;;11.99;83.58;97896.16;125394;1097;64431;-91
2021/05/16 02:42:52;;;;;;;11.10;10.00;;;;;;;11.94;83.40;97891.23;125621;1096;64284;-91
2021/05/16 02:45:20;;;;;;;11.53;10.43;;;;;;;11.88;83.47;97889.13;125701;1095;64336;-91
2021/05/16 02:47:47;;;;;;;10.93;9.83;;;;;;;11.84;83.56;97893.00;125699;1103;64426;-91
2021/05/16 02:50:15;;;;;;;10.80;9.57;;;;;;;11.83;83.66;97894.84;125634;1102;64211;-91
2021/05/16 02:52:42;;;;;;;11.13;10.13;;;;;;;11.84;83.78;97891.17;125789;1097;64287;-92
2021/05/16 02:55:11;;;;;;;10.97;9.90;;;;;;;11.86;83.65;97909.77;125796;1101;64511;-90
2021/05/16 02:57:40;;;;;;;10.53;9.55;;;;;;;11.85;83.69;97898.22;125891;1097;64339;-91
2021/05/16 03:00:08;;;;;;;10.47;9.47;;;;;;;11.85;83.72;97897.38;126088;1096;64422;-91
2021/05/16 03:02:35;;;;;;;10.23;9.13;;;;;;;11.85;83.71;97894.71;125895;1102;64258;-91
2021/05/16 03:05:02;;;;;;;12.50;11.20;;;;;;;11.86;83.79;97896.42;126071;1101;64205;-91
2021/05/16 03:07:30;;;;;;;14.03;12.57;;;;;;;11.85;83.59;97892.88;126119;1101;64448;-91
2021/05/16 03:09:57;;;;;;;12.50;11.23;;;;;;;11.84;83.67;97890.34;125841;1101;64336;-91
2021/05/16 03:12:24;;;;;;;12.60;11.47;;;;;;;11.88;83.74;97889.13;126009;1097;64326;-91
2021/05/16 03:14:52;;;;;;;11.57;10.57;;;;;;;11.89;83.72;97884.63;125702;1096;64301;-91
2021/05/16 03:17:19;;;;;;;11.40;10.30;;;;;;;11.92;83.68;97881.67;125583;1101;64303;-90
2021/05/16 03:19:46;;;;;;;9.67;8.73;;;;;;;11.93;83.77;97888.69;125540;1097;64454;-93
2021/05/16 03:22:13;;;;;;;8.60;7.40;;;;;;;11.89;83.70;97890.80;125380;1096;64345;-92
2021/05/16 03:24:41;;;;;;;12.10;10.87;;;;;;;11.92;83.88;97887.02;125480;1096;64265;-90
2021/05/16 03:27:08;;;;;;;13.27;11.87;;;;;;;11.92;83.95;97887.84;125354;1101;64326;-91
2021/05/16 03:29:35;;;;;;;13.33;11.00;;;;;;;11.90;83.77;97878.29;125176;1102;64330;-89
2021/05/16 03:32:03;;;;;;;13.93;10.80;;;;;;;11.88;83.79;97883.78;124908;1102;64384;-89
2021/05/16 03:34:30;;;;;;;27.77;24.83;;;;;;;11.86;83.92;97883.91;125127;1096;64345;-91
2021/05/16 03:36:58;;;;;;;81.43;68.27;;;;;;;11.84;84.05;97879.66;125133;1096;64332;-91
2021/05/16 03:39:26;;;;;;;87.77;64.97;;;;;;;11.82;83.99;97882.48;125261;1101;64400;-92
2021/05/16 03:41:56;;;;;;;78.87;59.50;;;;;;;11.82;84.18;97877.14;125215;1097;64348;-91
2021/05/16 03:44:25;;;;;;;36.75;32.85;;;;;;;11.87;84.04;97882.08;125008;1101;64343;-91
2021/05/16 03:46:53;;;;;;;19.70;17.35;;;;;;;11.86;84.05;97881.23;124990;1101;64291;-92
2021/05/16 03:49:20;;;;;;;25.03;22.57;;;;;;;11.89;84.02;97876.61;125216;1101;64422;-92
2021/05/16 03:51:48;;;;;;;14.07;12.97;;;;;;;11.90;83.90;97872.95;125171;1102;64355;-91
2021/05/16 03:54:15;;;;;;;8.30;7.50;;;;;;;11.88;83.88;97869.60;124974;1096;64477;-91
2021/05/16 03:56:43;;;;;;;7.15;6.10;;;;;;;11.88;83.86;97869.60;125341;1096;64326;-91
2021/05/16 03:59:11;;;;;;;6.00;5.50;;;;;;;11.84;84.07;97863.64;125210;1096;64268;-91
2021/05/16 04:01:38;;;;;;;6.73;6.10;;;;;;;11.82;84.19;97863.80;125337;1097;64251;-91
2021/05/16 04:04:06;;;;;;;8.27;6.50;;;;;;;11.81;84.17;97861.25;125384;1101;64247;-91
2021/05/16 04:06:33;;;;;;;7.83;7.03;;;;;;;11.76;84.03;97863.49;125169;1101;64531;-92
2021/05/16 04:09:00;;;;;;;7.40;6.47;;;;;;;11.75;83.98;97862.66;125301;1096;64431;-92
2021/05/16 04:11:28;;;;;;;7.40;6.70;;;;;;;11.78;84.24;97859.70;125199;1096;64326;-91
2021/05/16 04:13:55;;;;;;;6.47;5.97;;;;;;;11.80;84.21;97857.75;125183;1096;64383;-91
2021/05/16 04:16:22;;;;;;;5.83;5.40;;;;;;;11.86;84.40;97851.88;125296;1101;64323;-91
2021/05/16 04:18:49;;;;;;;6.07;5.40;;;;;;;11.93;84.19;97853.98;125291;1101;64360;-91
2021/05/16 04:21:17;;;;;;;7.50;6.80;;;;;;;11.98;84.12;97855.27;125287;1101;64480;-91
2021/05/16 04:23:44;;;;;;;8.60;7.77;;;;;;;12.03;84.18;97845.02;125132;1101;64275;-92
2021/05/16 04:26:11;;;;;;;9.27;7.30;;;;;;;12.03;84.08;97849.48;125214;1101;64317;-91
2021/05/16 04:28:39;;;;;;;7.43;6.83;;;;;;;12.06;83.97;97862.59;125375;1101;64438;-91
2021/05/16 04:31:06;;;;;;;10.30;7.90;;;;;;;12.10;84.00;97852.45;125167;1101;64416;-91
2021/05/16 04:33:33;;;;;;;10.35;9.35;;;;;;;12.10;83.94;97861.31;125299;1101;64441;-91
2021/05/16 04:36:01;;;;;;;11.17;10.07;;;;;;;12.14;84.17;97862.73;125251;1096;64272;-91
2021/05/16 04:38:30;;;;;;;8.37;7.57;;;;;;;12.20;84.18;97870.17;125180;1101;64358;-91
2021/05/16 04:40:58;;;;;;;8.23;7.53;;;;;;;12.25;83.89;97865.25;125261;1096;64317;-91
2021/05/16 04:43:25;;;;;;;9.93;7.90;;;;;;;12.30;83.86;97873.69;125478;1101;64348;-91
2021/05/16 04:45:53;;;;;;;9.33;8.13;;;;;;;12.37;83.97;97865.94;125292;1097;64488;-91
2021/05/16 04:48:20;;;;;;;10.10;9.17;;;;;;;12.43;83.86;97870.73;125285;1101;64415;-90
2021/05/16 04:50:47;;;;;;;48.70;39.20;;;;;;;12.44;83.62;97861.72;125457;1102;64459;-91
2021/05/16 04:53:15;;;;;;;19.20;17.10;;;;;;;12.44;83.68;97860.88;125719;1096;64300;-91
2021/05/16 04:55:42;;;;;;;12.93;11.63;;;;;;;12.39;83.75;97861.30;125545;1102;64329;-90
2021/05/16 04:58:10;;;;;;;11.03;10.07;;;;;;;12.38;83.71;97853.45;125676;1096;64262;-91
2021/05/16 05:00:37;;;;;;;26.13;22.13;;;;;;;12.37;83.88;97857.08;125931;1101;64320;-92
2021/05/16 05:03:04;;;;;;;19.27;16.10;;;;;;;12.38;83.97;97858.78;125822;1101;63121;-91
2021/05/16 05:05:32;;;;;;;25.13;19.07;;;;;;;12.40;83.89;97859.47;126120;1096;64283;-91
2021/05/16 05:08:01;;;;;;;20.90;15.53;;;;;;;12.40;83.81;97865.67;126178;1101;64390;-91
2021/05/16 05:10:28;;;;;;;11.77;10.57;;;;;;;12.45;84.02;97857.21;126164;1096;64313;-91
2021/05/16 05:12:55;;;;;;;37.23;28.70;;;;;;;12.51;84.05;97862.84;126094;1097;64201;-91
2021/05/16 05:15:23;;;;;;;40.93;31.03;;;;;;;12.55;83.92;97860.72;125903;1101;64253;-92
2021/05/16 05:17:50;;;;;;;12.57;11.23;;;;;;;12.58;83.82;97862.27;126123;1096;64268;-92
2021/05/16 05:20:17;;;;;;;31.37;27.73;;;;;;;12.58;83.74;97863.09;126076;1101;64319;-92
2021/05/16 05:22:44;;;;;;;16.23;14.63;;;;;;;12.59;83.68;97863.97;125792;1101;64361;-90
2021/05/16 05:25:12;;;;;;;13.87;12.47;;;;;;;12.62;83.82;97861.00;126047;1096;64319;-90
2021/05/16 05:27:39;;;;;;;15.33;13.83;;;;;;;12.68;83.76;97868.44;125982;1096;64275;-90
2021/05/16 05:30:07;;;;;;;43.37;33.67;;;;;;;12.74;83.82;97859.83;125605;1102;64278;-91
2021/05/16 05:32:34;;;;;;;60.60;48.90;;;;;;;12.83;83.74;97858.98;125572;1101;64365;-90
2021/05/16 05:35:02;;;;;;;17.07;15.27;;;;;;;12.95;83.69;97868.53;125572;1101;64480;-90
2021/05/16 05:37:29;;;;;;;12.20;10.90;;;;;;;13.08;83.57;97860.16;125399;1102;64441;-90
2021/05/16 05:39:58;;;;;;;42.20;37.33;;;;;;;13.18;83.42;97860.13;125529;1101;64346;-90
2021/05/16 05:42:26;;;;;;;23.05;20.55;;;;;;;13.28;83.34;97862.80;125054;1101;64253;-91
2021/05/16 05:44:53;;;;;;;19.83;17.67;;;;;;;13.34;83.15;97859.52;125066;1096;64394;-92
2021/05/16 05:47:21;;;;;;;31.63;26.87;;;;;;;13.37;83.24;97857.38;125130;1102;64479;-91
2021/05/16 05:49:48;;;;;;;18.47;16.60;;;;;;;13.45;83.08;97867.35;125173;1102;64258;-91
2021/05/16 05:52:15;;;;;;;12.70;11.60;;;;;;;13.61;83.04;97858.67;125665;1101;64282;-88
2021/05/16 05:54:43;;;;;;;40.63;37.33;;;;;;;13.73;82.56;97857.48;125273;1102;64428;-90
2021/05/16 05:57:11;;;;;;;15.87;14.57;;;;;;;13.92;82.74;97867.22;125344;1101;64476;-90
2021/05/16 05:59:38;;;;;;;11.73;10.53;;;;;;;14.11;82.65;97862.72;125215;1101;64527;-90
2021/05/16 06:02:06;;;;;;;10.90;8.67;;;;;;;14.25;82.16;97862.20;125410;1101;64326;-89
2021/05/16 06:04:33;;;;;;;9.10;8.30;;;;;;;14.38;82.23;97867.17;125310;1101;64280;-90
2021/05/16 06:07:00;;;;;;;13.13;11.97;;;;;;;14.43;82.06;97865.70;125321;1096;64243;-91
2021/05/16 06:09:28;;;;;;;9.25;7.80;;;;;;;14.48;81.76;97867.90;125798;1102;64310;-90
2021/05/16 06:11:55;;;;;;;9.37;8.47;;;;;;;14.57;81.55;97872.38;126259;1097;64334;-89
2021/05/16 06:14:23;;;;;;;7.70;7.07;;;;;;;14.64;81.61;97873.45;125935;1102;64249;-90
2021/05/16 06:16:50;;;;;;;8.10;7.30;;;;;;;14.70;81.28;97878.17;125369;1097;64342;-89
2021/05/16 06:19:17;;;;;;;8.93;8.13;;;;;;;14.76;81.37;97874.02;124994;1101;64310;-91
2021/05/16 06:21:44;;;;;;;10.53;9.63;;;;;;;14.84;81.24;97866.03;125324;1101;64354;-91
2021/05/16 06:24:13;;;;;;;5.00;4.60;;;;;;;14.88;81.04;97870.09;125289;1101;64875;-91
2021/05/16 06:26:42;;;;;;;3.90;3.50;;;;;;;14.91;80.76;97872.45;125302;1101;64387;-91
2021/05/16 06:29:10;;;;;;;3.78;2.90;;;;;;;14.87;80.43;97879.13;125215;1095;64342;-91
2021/05/16 06:31:39;;;;;;;4.70;3.23;;;;;;;14.83;80.62;97882.30;125419;1096;64320;-90
2021/05/16 06:34:07;;;;;;;3.87;3.00;;;;;;;14.84;80.39;97873.24;125152;1101;64345;-90
2021/05/16 06:36:35;;;;;;;4.10;3.80;;;;;;;14.84;80.23;97878.61;125278;1096;64403;-91
2021/05/16 06:39:05;;;;;;;4.33;3.20;;;;;;;14.85;80.20;97873.09;125372;1101;64479;-90
2021/05/16 06:41:33;;;;;;;3.43;3.17;;;;;;;14.88;80.12;97878.14;125318;1101;64337;-91
2021/05/16 06:44:00;;;;;;;5.65;3.40;;;;;;;14.92;80.07;97867.92;125025;1101;64422;-91
2021/05/16 06:46:28;;;;;;;3.37;2.73;;;;;;;15.02;79.77;97875.88;125291;1101;64444;-90
2021/05/16 06:48:55;;;;;;;2.73;2.30;;;;;;;15.19;79.90;97882.17;125370;1101;64379;-91
2021/05/16 06:51:23;;;;;;;4.20;2.90;;;;;;;15.43;79.33;97871.58;125065;1097;64296;-90
2021/05/16 06:53:50;;;;;;;4.30;3.55;;;;;;;15.64;78.41;97871.16;125275;1097;64422;-90
2021/05/16 06:56:17;;;;;;;3.40;2.93;;;;;;;15.84;78.74;97870.91;125349;1097;64239;-91
2021/05/16 06:58:45;;;;;;;4.23;3.83;;;;;;;16.02;78.45;97883.22;125381;1101;64370;-90
2021/05/16 07:01:12;;;;;;;4.30;3.47;;;;;;;16.15;78.06;97876.53;125443;1096;64358;-90
2021/05/16 07:03:41;;;;;;;3.70;3.30;;;;;;;16.26;77.86;97881.58;125244;1097;64323;-90
2021/05/16 07:06:09;;;;;;;6.30;5.80;;;;;;;16.34;77.55;97875.38;125435;1097;64432;-91
2021/05/16 07:08:36;;;;;;;7.33;6.80;;;;;;;16.42;77.09;97883.45;125163;1101;64253;-91
2021/05/16 07:11:03;;;;;;;3.43;3.00;;;;;;;16.57;77.23;97880.94;125360;1096;64443;-91
2021/05/16 07:13:31;;;;;;;3.60;3.23;;;;;;;16.67;77.00;97879.76;125358;1101;64336;-90
2021/05/16 07:15:58;;;;;;;3.87;3.57;;;;;;;16.80;76.78;97878.45;125480;1102;64395;-90
2021/05/16 07:18:28;;;;;;;2.47;2.27;;;;;;;16.93;76.39;97885.98;125117;1101;64339;-89
2021/05/16 07:20:56;;;;;;;5.17;2.40;;;;;;;16.97;75.93;97884.64;125322;1102;64352;-90
2021/05/16 07:23:23;;;;;;;2.90;2.40;;;;;;;17.02;75.60;97885.81;125331;1103;64448;-89
2021/05/16 07:25:50;;;;;;;2.63;2.43;;;;;;;17.10;75.09;97893.86;125604;1101;64336;-90
2021/05/16 07:28:18;;;;;;;2.20;2.00;;;;;;;17.17;74.56;97895.86;125433;1096;64390;-90
2021/05/16 07:30:45;;;;;;;2.77;2.57;;;;;;;17.29;74.50;97906.10;125626;1096;64204;-90
2021/05/16 07:33:12;;;;;;;2.87;2.57;;;;;;;17.41;74.43;97893.13;125653;1101;64390;-90
2021/05/16 07:35:40;;;;;;;6.13;3.87;;;;;;;17.49;74.16;97903.88;125114;1102;64381;-90
2021/05/16 07:38:08;;;;;;;4.30;3.43;;;;;;;17.48;73.88;97895.95;125142;1101;64537;-89
2021/05/16 07:40:37;;;;;;;3.23;2.40;;;;;;;17.43;73.58;97906.41;125688;1097;64275;-89
2021/05/16 07:43:05;;;;;;;2.30;2.10;;;;;;;17.32;73.83;97910.30;125388;1101;64211;-90
2021/05/16 07:45:33;;;;;;;2.17;1.97;;;;;;;17.13;73.74;97908.84;125364;1101;64325;-90
2021/05/16 07:48:01;;;;;;;2.40;2.20;;;;;;;17.01;73.97;97907.50;125187;1096;64330;-90
2021/05/16 07:50:30;;;;;;;2.60;1.97;;;;;;;16.87;73.80;97907.17;125228;1101;64355;-90
2021/05/16 07:52:58;;;;;;;;;;;;;;;16.74;73.63;97909.50;125301;1101;64421;-91
2021/05/16 07:55:25;;;;;;;4.00;2.30;;;;;;;16.62;74.28;97925.16;125442;1095;64339;-89
2021/05/16 07:57:52;;;;;;;2.53;2.33;;;;;;;16.46;74.08;97915.22;125306;1096;64252;-85
2021/05/16 08:00:20;;;;;;;3.00;2.23;;;;;;;16.33;74.03;97919.41;125611;1096;64329;-87
2021/05/16 08:02:47;;;;;;;3.60;2.70;;;;;;;16.30;74.24;97917.89;125317;1094;64348;-81
2021/05/16 08:05:14;;;;;;;3.40;2.37;;;;;;;16.30;74.24;97923.27;125251;1101;64342;-86
2021/05/16 08:07:42;;;;;;;2.87;2.57;;;;;;;16.36;74.29;97929.83;125089;1101;64317;-88
2021/05/16 08:10:10;;;;;;;2.60;2.40;;;;;;;16.39;74.08;97930.33;125160;1101;64277;-85
2021/05/16 08:12:38;;;;;;;3.87;2.83;;;;;;;16.54;73.97;97933.22;125234;1101;64395;-80
2021/05/16 08:15:07;;;;;;;3.87;3.03;;;;;;;16.73;74.24;97928.52;125085;1096;64334;-85
2021/05/16 08:17:35;;;;;;;4.17;2.90;;;;;;;16.93;74.20;97934.42;125330;1101;64323;-86
2021/05/16 08:20:07;;;;;;;3.27;2.70;;;;;;;17.05;73.13;97936.61;125268;1101;64343;-92
2021/05/16 08:22:36;;;;;;;2.93;1.90;;;;;;;17.03;71.50;97943.17;125635;1102;64361;-91
2021/05/16 08:25:06;;;;;;;3.00;1.50;;;;;;;16.95;72.61;97940.48;125464;1102;64110;-90
2021/05/16 08:27:34;;;;;;;1.83;1.70;;;;;;;17.01;72.00;97942.48;125235;1101;64355;-84
2021/05/16 08:30:02;;;;;;;3.70;1.57;;;;;;;16.94;71.47;97945.03;125132;1096;64326;-83
2021/05/16 08:32:30;;;;;;;1.73;1.30;;;;;;;16.89;71.84;97942.00;125151;1096;64246;-82
2021/05/16 08:34:58;;;;;;;2.10;1.17;;;;;;;16.94;71.68;97947.72;125287;1101;64326;-82
2021/05/16 08:37:25;;;;;;;2.27;1.80;;;;;;;16.92;71.98;97955.12;125164;1096;64287;-83
2021/05/16 08:40:32;;;;;;;1.20;1.10;;;;;;;16.97;71.82;97947.38;125434;1101;64383;-95
2021/05/16 08:43:05;;;;;;;1.37;1.23;;;;;;;16.82;71.46;97946.37;126222;1101;64333;-93
2021/05/16 08:45:36;;;;;;;1.90;1.70;;;;;;;16.88;71.82;97946.55;125726;1101;64344;-94
2021/05/16 08:48:04;;;;;;;2.10;1.80;;;;;;;16.97;70.69;97947.38;125686;1096;64300;-88
2021/05/16 08:50:32;;;;;;;2.00;1.90;;;;;;;17.15;70.76;97944.52;125361;1096;64415;-86
2021/05/16 08:52:59;;;;;;;1.87;1.77;;;;;;;17.29;70.11;97940.27;125658;1101;64559;-86
2021/05/16 08:55:27;;;;;;;1.10;1.10;;;;;;;17.24;68.88;97942.64;125309;1101;64307;-85
2021/05/16 08:58:35;;;;;;;1.90;1.30;;;;;;;17.31;69.56;97944.48;125521;1101;64307;-95
2021/05/16 09:01:17;;;;;;;1.33;1.07;;;;;;;17.58;69.62;97944.25;125458;1101;64274;-83
2021/05/16 09:03:45;;;;;;;0.77;0.77;;;;;;;17.78;69.64;97935.59;125296;1096;64399;-86
2021/05/16 09:06:34;;;;;;;1.13;1.03;;;;;;;18.03;69.73;97935.51;125673;1101;64371;-94
2021/05/16 09:09:25;;;;;;;1.43;1.10;;;;;;;18.21;68.98;97943.34;125382;1096;64342;-83
2021/05/16 09:12:07;;;;;;;1.00;0.93;;;;;;;18.24;68.52;97942.98;125247;1096;64240;-83
2021/05/16 09:15:04;;;;;;;1.50;1.00;;;;;;;18.35;67.94;97939.04;125229;1101;64338;-83
2021/05/16 09:20:40;;;;;;;1.40;1.10;;;;;;;18.32;67.93;97947.49;117513;1085;64356;-85
2021/05/16 09:23:08;;;;;;;1.03;0.83;;;;;;;18.27;68.11;97942.63;124879;1104;64358;-82
2021/05/16 09:25:36;;;;;;;1.90;1.03;;;;;;;18.21;67.79;97941.48;124823;1104;64284;-84
2021/05/16 09:28:14;;;;;;;0.83;0.70;;;;;;;18.10;66.58;97949.14;124972;1104;64369;-78
2021/05/16 09:30:42;;;;;;;1.60;0.87;;;;;;;18.04;67.47;97944.46;124726;1104;64332;-79
2021/05/16 09:33:51;;;;;;;1.20;0.93;;;;;;;18.02;67.00;97944.63;124893;1104;64355;-91
2021/05/16 09:36:19;;;;;;;0.90;0.60;;;;;;;17.97;67.40;97955.09;125520;1104;64281;-90
2021/05/16 09:38:46;;;;;;;0.80;0.80;;;;;;;18.06;67.67;97950.49;124979;1096;64416;-80
2021/05/16 09:41:17;;;;;;;1.40;1.10;;;;;;;18.19;67.64;97953.45;124848;1104;64355;-79
2021/05/16 09:43:47;;;;;;;1.67;1.10;;;;;;;18.32;66.77;97958.28;124752;1099;64508;-78
2021/05/16 09:46:14;;;;;;;1.30;1.20;;;;;;;18.28;66.61;97959.67;124777;1099;64361;-78
2021/05/16 09:48:44;;;;;;;1.57;1.10;;;;;;;18.24;66.30;97953.77;124692;1104;64253;-80
2021/05/16 09:51:25;;;;;;;4.03;1.30;;;;;;;18.27;65.87;97952.58;124727;1104;64364;-80
2021/05/16 09:53:58;;;;;;;2.27;1.30;;;;;;;18.35;65.86;97958.79;124716;1098;64358;-79
2021/05/16 09:56:40;;;;;;;4.97;1.50;;;;;;;18.46;65.84;97962.07;124749;1099;64335;-79
2021/05/16 09:59:09;;;;;;;1.30;1.20;;;;;;;18.51;66.00;97959.68;124665;1099;64399;-80
2021/05/16 10:01:37;;;;;;;1.30;1.20;;;;;;;18.59;65.53;97957.79;124693;1105;64473;-78
2021/05/16 10:04:06;;;;;;;2.20;1.30;;;;;;;18.72;65.79;97968.00;124693;1104;64387;-78
2021/05/16 10:06:35;;;;;;;1.40;1.20;;;;;;;18.97;65.60;97957.86;124766;1104;64407;-80
2021/05/16 10:09:03;;;;;;;1.80;1.30;;;;;;;19.28;65.22;97970.43;124716;1100;64365;-79
2021/05/16 10:11:31;;;;;;;1.80;1.50;;;;;;;19.26;64.35;97962.50;124664;1104;64342;-79
2021/05/16 10:14:03;;;;;;;2.60;2.00;;;;;;;19.23;63.50;97962.03;124689;1104;64256;-78
2021/05/16 10:16:38;;;;;;;2.07;1.87;;;;;;;19.11;63.47;97966.19;124718;1104;64358;-78
2021/05/16 10:19:07;;;;;;;2.00;1.60;;;;;;;19.16;64.12;97963.78;124727;1104;64361;-79
2021/05/16 10:21:34;;;;;;;2.35;1.65;;;;;;;19.14;64.25;97957.72;124726;1099;64344;-80
2021/05/16 10:24:16;;;;;;;1.50;1.40;;;;;;;19.17;63.89;97965.45;124719;1100;64808;-79
2021/05/16 10:26:44;;;;;;;1.90;1.70;;;;;;;18.98;63.70;97969.50;124690;1104;64253;-78
2021/05/16 10:29:11;;;;;;;2.67;1.70;;;;;;;18.80;63.80;97959.86;124714;1100;64380;-80
2021/05/16 10:31:51;;;;;;;2.30;1.40;;;;;;;18.63;63.38;97969.89;124707;1104;64442;-81
2021/05/16 10:34:28;;;;;;;;;;;;;;;18.36;63.28;97973.94;124771;1104;64422;-79
2021/05/16 10:37:00;;;;;;;1.10;0.97;;;;;;;18.25;64.02;97970.81;124736;1099;64428;-80
2021/05/16 10:39:40;;;;;;;1.35;1.10;;;;;;;18.09;64.03;97969.02;124823;1105;64374;-80
2021/05/16 10:42:14;;;;;;;2.78;1.30;;;;;;;17.93;63.81;97969.92;124722;1100;64361;-80
2021/05/16 10:45:04;;;;;;;1.80;1.30;;;;;;;17.80;64.37;97965.11;124692;1104;64425;-80
2021/05/16 10:47:53;;;;;;;1.15;1.00;;;;;;;17.73;64.10;97967.61;124696;1104;64249;-79
2021/05/16 10:50:23;;;;;;;3.13;1.37;;;;;;;17.74;65.07;97969.28;124712;1104;64366;-79
2021/05/16 10:53:01;;;;;;;1.63;1.10;;;;;;;17.66;64.74;97971.17;124694;1105;64252;-78
2021/05/16 10:55:31;;;;;;;1.33;1.00;;;;;;;17.46;64.53;97971.56;124749;1104;64470;-78
2021/05/16 10:57:59;;;;;;;2.50;1.30;;;;;;;17.31;64.50;97968.72;124742;1098;64382;-79
2021/05/16 11:00:34;;;;;;;2.37;1.17;;;;;;;17.13;64.88;97970.76;124774;1104;64492;-79
2021/05/16 11:03:09;;;;;;;1.23;1.13;;;;;;;17.02;65.59;97969.25;124690;1104;64329;-79
2021/05/16 11:08:16;;;;;;;2.57;1.50;;;;;;;16.90;66.07;97978.66;124788;1098;64329;-78
2021/05/16 11:11:02;;;;;;;1.50;1.40;;;;;;;16.93;66.64;97972.97;124711;1104;64336;-79
2021/05/16 11:13:33;;;;;;;1.67;1.57;;;;;;;17.03;66.25;97970.92;124660;1099;64374;-79
2021/05/16 11:16:05;;;;;;;3.20;1.75;;;;;;;17.09;65.90;97977.51;124739;1104;64630;-79
2021/05/16 11:18:33;;;;;;;2.77;1.60;;;;;;;17.08;66.01;97986.58;124693;1099;64278;-80
2021/05/16 11:21:06;;;;;;;1.80;1.40;;;;;;;17.15;65.82;97978.67;124742;1099;64312;-79
2021/05/16 11:23:35;;;;;;;1.53;1.43;;;;;;;17.21;65.75;97978.83;124712;1105;64342;-79
2021/05/16 11:26:04;;;;;;;2.03;1.90;;;;;;;17.30;65.44;97969.74;124644;1105;64329;-80
2021/05/16 11:28:34;;;;;;;1.80;1.28;;;;;;;17.38;64.61;97963.50;124689;1099;64728;-79
2021/05/16 11:31:14;;;;;;;2.20;2.07;;;;;;;17.47;64.91;97967.02;124805;1104;64338;-79
2021/05/16 11:33:42;;;;;;;1.63;1.53;;;;;;;17.67;65.80;97965.63;124745;1104;64468;-78
2021/05/16 11:36:18;;;;;;;2.07;1.40;;;;;;;17.82;65.08;97954.97;124729;1098;64339;-80